createdAt,value
2022-08-22T00:01:00.316Z,12.07
2022-08-22T00:03:06.869Z,9.97
2022-08-22T00:03:12.642Z,5.80
2022-08-22T00:05:32.979Z,10.50
2022-08-22T00:07:46.739Z,11.23
2022-08-22T00:09:57.362Z,10.70
2022-08-22T00:12:14.585Z,10.77
2022-08-22T00:14:25.520Z,11.23
2022-08-22T00:16:36.799Z,10.30
2022-08-22T00:18:46.727Z,10.17
2022-08-22T00:20:56.436Z,11.63
2022-08-22T00:23:06.382Z,10.57
2022-08-22T00:25:29.557Z,11.50
2022-08-22T00:27:39.033Z,9.80
2022-08-22T00:29:53.880Z,11.40
2022-08-22T00:32:06.344Z,9.17
2022-08-22T00:34:17.206Z,12.37
2022-08-22T00:36:25.875Z,8.53
2022-08-22T00:38:31.864Z,10.00
2022-08-22T00:40:58.835Z,7.67
2022-08-22T00:43:21.465Z,8.13
2022-08-22T00:46:01.475Z,7.60
2022-08-22T00:48:27.536Z,9.07
2022-08-22T00:51:15.056Z,8.63
2022-08-22T00:53:39.184Z,10.37
2022-08-22T00:55:55.037Z,13.40
2022-08-22T00:58:33.873Z,11.73
2022-08-22T01:00:43.527Z,13.40
2022-08-22T01:03:10.764Z,15.23
2022-08-22T01:05:36.332Z,13.40
2022-08-22T01:07:58.492Z,11.10
2022-08-22T01:10:18.277Z,11.70
2022-08-22T01:12:47.832Z,12.17
2022-08-22T01:14:55.591Z,13.20
2022-08-22T01:17:23.492Z,12.67
2022-08-22T01:19:56.390Z,13.67
2022-08-22T01:22:36.592Z,12.60
2022-08-22T01:27:57.587Z,13.50
2022-08-22T01:30:16.372Z,14.60
2022-08-22T01:32:47.322Z,11.90
2022-08-22T01:35:16.257Z,11.07
2022-08-22T01:38:00.369Z,12.43
2022-08-22T01:40:38.200Z,11.40
2022-08-22T01:43:08.294Z,13.17
2022-08-22T01:45:35.374Z,11.70
2022-08-22T01:47:43.422Z,12.57
2022-08-22T01:49:52.613Z,10.80
2022-08-22T01:52:02.704Z,12.30
2022-08-22T01:54:11.908Z,11.70
2022-08-22T01:56:18.448Z,11.77
2022-08-22T01:58:23.951Z,13.53
2022-08-22T02:00:34.898Z,11.33
2022-08-22T02:02:53.166Z,11.65
2022-08-22T02:05:02.486Z,11.83
2022-08-22T02:07:13.124Z,11.10
2022-08-22T02:09:31.979Z,11.97
2022-08-22T02:11:41.160Z,10.80
2022-08-22T02:13:52.731Z,11.30
2022-08-22T02:16:09.920Z,10.93
2022-08-22T02:18:29.034Z,12.85
2022-08-22T02:20:37.831Z,12.65
2022-08-22T02:22:55.047Z,12.13
2022-08-22T02:25:08.827Z,11.30
2022-08-22T02:27:23.623Z,12.25
2022-08-22T02:29:35.298Z,10.88
2022-08-22T02:31:43.486Z,11.00
2022-08-22T02:33:53.450Z,14.05
2022-08-22T02:36:01.557Z,10.65
2022-08-22T02:38:22.714Z,10.90
2022-08-22T02:40:31.330Z,12.00
2022-08-22T02:42:40.086Z,10.80
2022-08-22T02:44:52.768Z,11.23
2022-08-22T02:47:05.011Z,13.20
2022-08-22T02:49:12.993Z,10.75
2022-08-22T02:51:22.366Z,9.82
2022-08-22T02:53:33.685Z,9.80
2022-08-22T02:55:51.515Z,11.73
2022-08-22T02:58:01.806Z,13.07
2022-08-22T03:00:30.779Z,15.70
2022-08-22T03:02:39.119Z,13.80
2022-08-22T03:04:53.917Z,13.55
2022-08-22T03:07:12.092Z,11.88
2022-08-22T03:09:28.638Z,12.20
2022-08-22T03:11:37.297Z,11.00
2022-08-22T03:13:54.707Z,12.52
2022-08-22T03:16:01.493Z,11.10
2022-08-22T03:18:16.128Z,12.88
2022-08-22T03:20:37.121Z,12.15
2022-08-22T03:22:48.001Z,10.45
2022-08-22T03:24:56.880Z,10.73
2022-08-22T03:27:06.598Z,10.50
2022-08-22T03:29:13.064Z,11.00
2022-08-22T03:31:18.892Z,12.07
2022-08-22T03:33:23.466Z,9.85
2022-08-22T03:35:35.005Z,12.15
2022-08-22T03:37:41.937Z,13.80
2022-08-22T03:39:58.568Z,9.75
2022-08-22T03:42:21.816Z,10.30
2022-08-22T03:45:07.017Z,11.32
2022-08-22T03:47:28.594Z,10.50
2022-08-22T03:50:05.542Z,10.82
2022-08-22T03:52:25.407Z,10.55
2022-08-22T03:54:59.166Z,11.85
2022-08-22T03:57:45.078Z,10.43
2022-08-22T04:00:04.615Z,11.10
2022-08-22T04:02:43.131Z,10.70
2022-08-22T04:05:16.315Z,12.77
2022-08-22T04:07:55.113Z,10.07
2022-08-22T04:10:26.924Z,10.88
2022-08-22T04:12:56.834Z,12.93
2022-08-22T04:15:21.018Z,11.00
2022-08-22T04:17:55.544Z,11.20
2022-08-22T04:20:25.446Z,11.10
2022-08-22T04:22:54.369Z,12.75
2022-08-22T04:25:07.779Z,9.63
2022-08-22T04:27:21.791Z,11.88
2022-08-22T04:29:29.719Z,11.82
2022-08-22T04:31:37.159Z,10.85
2022-08-22T04:33:45.826Z,11.82
2022-08-22T04:36:00.531Z,10.27
2022-08-22T04:38:09.125Z,14.57
2022-08-22T04:40:18.438Z,10.95
2022-08-22T04:42:36.114Z,10.38
2022-08-22T04:44:45.437Z,12.73
2022-08-22T04:46:53.703Z,11.05
2022-08-22T04:49:01.913Z,10.07
2022-08-22T04:51:11.987Z,10.20
2022-08-22T04:53:24.578Z,10.05
2022-08-22T04:55:36.231Z,11.00
2022-08-22T04:57:50.136Z,9.80
2022-08-22T04:59:59.098Z,10.02
2022-08-22T05:02:06.341Z,12.70
2022-08-22T05:04:12.643Z,11.50
2022-08-22T05:06:19.004Z,12.13
2022-08-22T05:08:26.852Z,9.90
2022-08-22T05:10:37.601Z,12.07
2022-08-22T05:12:48.813Z,9.73
2022-08-22T05:14:55.523Z,10.40
2022-08-22T05:17:00.235Z,12.43
2022-08-22T05:19:07.682Z,11.40
2022-08-22T05:21:13.908Z,12.75
2022-08-22T05:23:20.380Z,10.75
2022-08-22T05:25:28.633Z,11.27
2022-08-22T05:27:34.828Z,10.50
2022-08-22T05:29:43.307Z,9.60
2022-08-22T05:31:51.320Z,9.55
2022-08-22T05:33:57.240Z,13.93
2022-08-22T05:36:05.723Z,11.40
2022-08-22T05:38:15.074Z,10.35
2022-08-22T05:40:22.352Z,9.73
2022-08-22T05:42:29.174Z,9.45
2022-08-22T05:44:34.388Z,8.90
2022-08-22T05:46:42.326Z,12.10
2022-08-22T05:48:53.423Z,10.07
2022-08-22T05:51:00.974Z,9.65
2022-08-22T05:53:09.052Z,10.48
2022-08-22T05:55:23.649Z,9.43
2022-08-22T05:57:31.236Z,9.90
2022-08-22T05:59:39.036Z,11.15
2022-08-22T06:01:53.076Z,10.75
2022-08-22T06:04:06.834Z,9.60
2022-08-22T06:06:15.282Z,9.27
2022-08-22T06:08:23.346Z,9.73
2022-08-22T06:10:29.607Z,9.88
2022-08-22T06:12:37.296Z,9.38
2022-08-22T06:14:46.863Z,9.40
2022-08-22T06:17:01.267Z,9.40
2022-08-22T06:19:05.356Z,11.07
2022-08-22T06:21:35.435Z,10.75
2022-08-22T06:23:47.005Z,8.97
2022-08-22T06:25:52.628Z,14.50
2022-08-22T06:27:56.621Z,9.83
2022-08-22T06:30:03.274Z,9.97
2022-08-22T06:32:13.600Z,10.03
2022-08-22T06:34:25.020Z,8.93
2022-08-22T06:36:30.456Z,8.93
2022-08-22T06:38:54.533Z,8.90
2022-08-22T06:41:00.946Z,9.07
2022-08-22T06:43:05.362Z,11.30
2022-08-22T06:45:11.775Z,8.60
2022-08-22T06:47:19.138Z,8.67
2022-08-22T06:49:24.207Z,9.53
2022-08-22T06:51:29.124Z,10.10
2022-08-22T06:53:38.234Z,8.20
2022-08-22T06:55:55.646Z,9.10
2022-08-22T06:58:03.525Z,8.30
2022-08-22T07:00:11.450Z,8.43
2022-08-22T07:02:26.809Z,8.47
2022-08-22T07:04:29.924Z,8.77
2022-08-22T07:06:36.967Z,9.10
2022-08-22T07:08:40.642Z,10.07
2022-08-22T07:10:46.560Z,8.03
2022-08-22T07:12:53.509Z,7.60
2022-08-22T07:15:10.610Z,9.63
2022-08-22T07:17:21.561Z,11.60
2022-08-22T07:19:27.066Z,6.57
2022-08-22T07:21:36.163Z,6.90
2022-08-22T07:23:44.883Z,8.17
2022-08-22T07:25:52.817Z,7.10
2022-08-22T07:28:16.044Z,7.20
2022-08-22T07:30:28.027Z,7.10
2022-08-22T07:32:42.038Z,7.17
2022-08-22T07:35:03.000Z,7.30
2022-08-22T07:37:09.237Z,7.10
2022-08-22T07:39:28.495Z,5.93
2022-08-22T07:41:39.665Z,6.13
2022-08-22T07:43:47.242Z,6.50
2022-08-22T07:45:53.743Z,6.13
2022-08-22T07:48:06.760Z,6.47
2022-08-22T07:50:14.781Z,6.73
2022-08-22T07:52:18.434Z,6.80
2022-08-22T07:54:27.079Z,6.60
2022-08-22T07:56:35.761Z,6.27
2022-08-22T07:58:41.913Z,6.27
2022-08-22T08:00:47.081Z,6.20
2022-08-22T08:02:52.123Z,7.10
2022-08-22T08:04:58.868Z,6.40
2022-08-22T08:07:04.151Z,5.87
2022-08-22T08:09:09.775Z,6.17
2022-08-22T08:11:15.943Z,6.20
2022-08-22T08:13:23.099Z,6.10
2022-08-22T08:15:26.705Z,6.43
2022-08-22T08:17:34.274Z,6.90
2022-08-22T08:19:41.250Z,6.10
2022-08-22T08:21:51.250Z,6.17
2022-08-22T08:23:55.537Z,6.30
2022-08-22T08:26:09.491Z,9.30
2022-08-22T08:28:30.112Z,5.70
2022-08-22T08:30:38.576Z,5.70
2022-08-22T08:32:43.920Z,6.00
2022-08-22T08:34:46.780Z,7.60
2022-08-22T08:36:55.446Z,6.60
2022-08-22T08:39:04.252Z,6.33
2022-08-22T08:41:39.486Z,6.10
2022-08-22T08:43:50.841Z,6.60
2022-08-22T08:46:16.529Z,6.63
2022-08-22T08:48:45.872Z,6.77
2022-08-22T08:51:04.099Z,6.10
2022-08-22T08:53:39.394Z,6.67
2022-08-22T08:55:55.386Z,7.07
2022-08-22T08:58:10.767Z,5.83
2022-08-22T09:00:18.023Z,6.43
2022-08-22T09:02:48.751Z,5.53
2022-08-22T09:05:30.089Z,6.23
2022-08-22T09:07:48.488Z,6.17
2022-08-22T09:10:18.971Z,5.83
2022-08-22T09:12:41.730Z,6.63
2022-08-22T09:15:14.131Z,5.90
2022-08-22T09:17:35.267Z,6.93
2022-08-22T09:20:17.974Z,5.40
2022-08-22T09:22:52.427Z,5.73
2022-08-22T09:25:38.386Z,6.47
2022-08-22T09:27:52.689Z,5.60
2022-08-22T09:30:00.435Z,5.57
2022-08-22T09:32:13.541Z,6.40
2022-08-22T09:34:31.067Z,6.10
2022-08-22T09:36:41.308Z,6.13
2022-08-22T09:38:55.290Z,6.73
2022-08-22T09:41:11.812Z,5.50
2022-08-22T09:43:22.881Z,5.90
2022-08-22T09:45:42.914Z,5.97
2022-08-22T09:47:57.214Z,5.50
2022-08-22T09:50:14.685Z,6.30
2022-08-22T09:52:34.211Z,5.90
2022-08-22T09:54:47.160Z,4.97
2022-08-22T09:56:59.378Z,5.50
2022-08-22T09:59:09.866Z,6.20
2022-08-22T10:01:24.162Z,5.70
2022-08-22T10:03:53.663Z,5.23
2022-08-22T10:06:02.203Z,5.57
2022-08-22T10:08:19.745Z,5.47
2022-08-22T10:10:38.963Z,5.00
2022-08-22T10:12:51.296Z,6.00
2022-08-22T10:15:10.138Z,5.43
2022-08-22T10:17:21.885Z,5.23
2022-08-22T10:19:30.261Z,7.63
2022-08-22T10:21:40.526Z,8.93
2022-08-22T10:23:51.714Z,4.97
2022-08-22T10:26:03.153Z,4.90
2022-08-22T10:28:15.836Z,5.07
2022-08-22T10:30:22.936Z,5.97
2022-08-22T10:32:34.673Z,5.73
2022-08-22T10:34:43.200Z,5.03
2022-08-22T10:36:58.223Z,5.80
2022-08-22T10:39:09.572Z,4.30
2022-08-22T10:41:26.642Z,6.03
2022-08-22T10:43:41.702Z,5.73
2022-08-22T10:45:48.665Z,6.13
2022-08-22T10:48:24.569Z,6.10
2022-08-22T10:50:32.858Z,6.70
2022-08-22T10:52:45.240Z,5.90
2022-08-22T10:54:52.703Z,6.63
2022-08-22T10:57:06.652Z,6.30
2022-08-22T10:59:23.933Z,7.20
2022-08-22T11:01:38.093Z,5.43
2022-08-22T11:03:52.873Z,6.27
2022-08-22T11:06:01.265Z,6.13
2022-08-22T11:08:28.627Z,6.50
2022-08-22T11:10:44.833Z,6.50
2022-08-22T11:12:54.896Z,6.93
2022-08-22T11:15:07.380Z,5.63
2022-08-22T11:17:30.273Z,6.03
2022-08-22T11:19:49.127Z,7.40
2022-08-22T11:22:01.470Z,6.60
2022-08-22T11:24:34.533Z,6.50
2022-08-22T11:26:47.321Z,5.70
2022-08-22T11:29:13.341Z,5.70
2022-08-22T11:31:31.839Z,5.47
2022-08-22T11:33:46.701Z,5.93
2022-08-22T11:35:56.253Z,5.97
2022-08-22T11:38:03.780Z,6.10
2022-08-22T11:40:20.571Z,5.27
2022-08-22T11:42:33.184Z,5.60
2022-08-22T11:44:50.082Z,6.30
2022-08-22T11:46:57.288Z,6.27
2022-08-22T11:49:15.794Z,6.13
2022-08-22T11:51:35.994Z,5.57
2022-08-22T11:53:44.858Z,10.00
2022-08-22T11:55:58.701Z,5.83
2022-08-22T11:58:16.819Z,5.33
2022-08-22T12:00:35.375Z,6.27
2022-08-22T12:02:48.195Z,7.40
2022-08-22T12:04:56.308Z,5.43
2022-08-22T12:07:09.454Z,6.83
2022-08-22T12:09:42.502Z,4.90
2022-08-22T12:11:59.897Z,5.20
2022-08-22T12:14:07.238Z,5.30
2022-08-22T12:16:19.589Z,5.60
2022-08-22T12:18:47.606Z,5.37
2022-08-22T12:21:21.930Z,5.00
2022-08-22T12:23:49.644Z,7.63
2022-08-22T12:26:10.947Z,5.90
2022-08-22T12:28:26.929Z,5.00
2022-08-22T12:30:35.809Z,5.30
2022-08-22T12:33:10.563Z,4.63
2022-08-22T12:35:30.518Z,5.67
2022-08-22T12:37:52.196Z,5.50
2022-08-22T12:40:26.303Z,5.87
2022-08-22T12:42:50.157Z,4.73
2022-08-22T12:45:09.863Z,5.30
2022-08-22T12:47:25.829Z,5.40
2022-08-22T12:49:38.515Z,5.80
2022-08-22T12:51:55.798Z,5.90
2022-08-22T12:54:22.636Z,5.50
2022-08-22T12:56:38.031Z,5.60
2022-08-22T12:59:12.181Z,5.70
2022-08-22T13:01:16.579Z,5.43
2022-08-22T13:03:25.980Z,5.70
2022-08-22T13:05:30.947Z,5.30
2022-08-22T13:07:43.980Z,5.33
2022-08-22T13:09:52.389Z,6.00
2022-08-22T13:12:00.223Z,5.50
2022-08-22T13:14:05.601Z,4.90
2022-08-22T13:16:12.270Z,6.00
2022-08-22T13:18:31.650Z,5.50
2022-08-22T13:20:38.092Z,5.63
2022-08-22T13:22:45.700Z,5.30
2022-08-22T13:24:54.955Z,5.13
2022-08-22T13:27:05.765Z,5.40
2022-08-22T13:29:26.473Z,5.23
2022-08-22T13:31:32.599Z,5.40
2022-08-22T13:33:38.886Z,4.90
2022-08-22T13:35:52.177Z,5.13
2022-08-22T13:38:07.303Z,5.70
2022-08-22T13:40:25.318Z,4.83
2022-08-22T13:42:31.379Z,4.47
2022-08-22T13:44:40.187Z,5.17
2022-08-22T13:47:10.865Z,5.23
2022-08-22T13:49:10.482Z,4.77
2022-08-22T13:51:21.776Z,5.77
2022-08-22T13:53:32.819Z,4.27
2022-08-22T13:55:48.998Z,5.60
2022-08-22T13:57:55.837Z,5.03
2022-08-22T14:00:07.834Z,4.47
2022-08-22T14:02:18.174Z,4.70
2022-08-22T14:04:33.530Z,5.73
2022-08-22T14:06:46.830Z,5.20
2022-08-22T14:08:51.452Z,5.50
2022-08-22T14:10:59.528Z,5.00
2022-08-22T14:13:43.528Z,4.60
2022-08-22T14:15:46.986Z,4.83
2022-08-22T14:17:54.582Z,4.80
2022-08-22T14:20:03.359Z,5.43
2022-08-22T14:22:14.371Z,4.90
2022-08-22T14:24:21.179Z,4.40
2022-08-22T14:26:37.178Z,4.97
2022-08-22T14:28:41.563Z,4.40
2022-08-22T14:31:01.030Z,5.10
2022-08-22T14:33:13.776Z,4.90
2022-08-22T14:35:35.319Z,4.67
2022-08-22T14:37:43.549Z,4.47
2022-08-22T14:39:50.783Z,4.10
2022-08-22T14:42:09.948Z,5.53
2022-08-22T14:44:21.273Z,4.50
2022-08-22T14:46:30.136Z,4.60
2022-08-22T14:48:40.752Z,5.70
2022-08-22T14:50:50.547Z,5.73
2022-08-22T14:53:06.624Z,5.77
2022-08-22T14:55:19.304Z,5.53
2022-08-22T14:57:23.459Z,5.80
2022-08-22T14:59:40.745Z,5.10
2022-08-22T15:01:56.516Z,5.50
2022-08-22T15:04:03.444Z,4.57
2022-08-22T15:06:10.078Z,4.73
2022-08-22T15:08:24.165Z,4.70
2022-08-22T15:10:31.609Z,4.90
2022-08-22T15:12:46.511Z,4.97
2022-08-22T15:14:52.973Z,5.83
2022-08-22T15:16:58.197Z,5.37
2022-08-22T15:19:02.298Z,5.03
2022-08-22T15:21:08.944Z,5.57
2022-08-22T15:23:20.648Z,5.10
2022-08-22T15:25:28.591Z,5.03
2022-08-22T15:27:33.853Z,5.90
2022-08-22T15:29:53.744Z,4.73
2022-08-22T15:32:01.242Z,4.63
2022-08-22T15:34:11.203Z,5.63
2022-08-22T15:36:16.298Z,5.33
2022-08-22T15:38:29.997Z,5.07
2022-08-22T15:40:40.532Z,5.20
2022-08-22T15:42:46.533Z,7.70
2022-08-22T15:44:56.049Z,5.90
2022-08-22T15:47:03.925Z,5.40
2022-08-22T15:49:10.658Z,4.70
2022-08-22T15:51:31.941Z,5.50
2022-08-22T15:54:02.500Z,5.30
2022-08-22T15:56:23.747Z,5.70
2022-08-22T15:58:26.559Z,6.07
2022-08-22T16:00:34.284Z,4.47
2022-08-22T16:02:41.526Z,4.77
2022-08-22T16:04:49.235Z,5.40
2022-08-22T16:06:55.072Z,5.53
2022-08-22T16:08:58.875Z,5.07
2022-08-22T16:11:33.089Z,7.43
2022-08-22T16:13:44.994Z,6.33
2022-08-22T16:16:02.311Z,5.30
2022-08-22T16:18:05.616Z,5.47
2022-08-22T16:20:46.027Z,5.77
2022-08-22T16:23:08.132Z,6.10
2022-08-22T16:25:11.011Z,4.70
2022-08-22T16:27:26.655Z,5.23
2022-08-22T16:29:37.692Z,4.93
2022-08-22T16:32:01.415Z,5.53
2022-08-22T16:34:26.968Z,5.17
2022-08-22T16:36:46.238Z,5.20
2022-08-22T16:38:51.384Z,5.77
2022-08-22T16:40:54.568Z,5.27
2022-08-22T16:43:14.231Z,6.43
2022-08-22T16:45:20.507Z,5.30
2022-08-22T16:47:41.532Z,5.47
2022-08-22T16:50:26.950Z,5.20
2022-08-22T16:52:57.413Z,5.70
2022-08-22T16:55:02.776Z,5.13
2022-08-22T16:57:17.229Z,5.10
2022-08-22T16:59:56.069Z,5.60
2022-08-22T17:02:33.074Z,6.53
2022-08-22T17:04:44.078Z,5.23
2022-08-22T17:06:57.381Z,5.50
2022-08-22T17:09:16.364Z,5.63
2022-08-22T17:11:30.719Z,5.20
2022-08-22T17:13:57.156Z,5.33
2022-08-22T17:16:18.397Z,5.00
2022-08-22T17:18:44.146Z,5.17
2022-08-22T17:21:01.973Z,5.33
2022-08-22T17:23:22.300Z,5.63
2022-08-22T17:25:34.012Z,5.93
2022-08-22T17:27:40.763Z,5.53
2022-08-22T17:29:53.812Z,6.30
2022-08-22T17:32:10.345Z,5.53
2022-08-22T17:34:28.715Z,6.03
2022-08-22T17:36:47.198Z,5.10
2022-08-22T17:39:10.068Z,5.20
2022-08-22T17:41:23.302Z,5.20
2022-08-22T17:43:44.647Z,4.33
2022-08-22T17:46:05.537Z,4.90
2022-08-22T17:48:15.003Z,4.90
2022-08-22T17:50:23.631Z,5.00
2022-08-22T17:52:35.941Z,5.13
2022-08-22T17:54:43.092Z,5.90
2022-08-22T17:56:52.431Z,5.53
2022-08-22T17:59:20.832Z,9.53
2022-08-22T18:01:40.564Z,5.47
2022-08-22T18:03:52.753Z,6.03
2022-08-22T18:06:04.606Z,5.70
2022-08-22T18:08:37.524Z,5.47
2022-08-22T18:10:46.470Z,5.20
2022-08-22T18:12:54.866Z,5.73
2022-08-22T18:15:03.722Z,6.10
2022-08-22T18:17:19.254Z,5.97
2022-08-22T18:19:39.515Z,5.30
2022-08-22T18:21:49.870Z,5.20
2022-08-22T18:23:58.986Z,5.00
2022-08-22T18:26:07.921Z,5.80
2022-08-22T18:28:15.916Z,5.07
2022-08-22T18:30:22.007Z,8.53
2022-08-22T18:32:30.087Z,5.30
2022-08-22T18:34:43.398Z,6.60
2022-08-22T18:36:50.769Z,5.87
2022-08-22T18:39:04.468Z,7.67
2022-08-22T18:41:13.036Z,6.20
2022-08-22T18:43:23.807Z,5.93
2022-08-22T18:46:11.586Z,5.57
2022-08-22T18:48:21.330Z,5.00
2022-08-22T18:50:31.412Z,5.83
2022-08-22T18:52:40.605Z,5.60
2022-08-22T18:54:55.997Z,5.57
2022-08-22T18:57:09.383Z,5.20
2022-08-22T18:59:30.871Z,5.53
2022-08-22T19:01:46.896Z,5.87
2022-08-22T19:04:13.567Z,5.77
2022-08-22T19:06:37.901Z,8.43
2022-08-22T19:09:08.701Z,6.00
2022-08-22T19:11:37.282Z,6.30
2022-08-22T19:13:59.092Z,5.70
2022-08-22T19:16:31.473Z,5.40
2022-08-22T19:18:39.099Z,5.37
2022-08-22T19:21:00.306Z,5.50
2022-08-22T19:23:37.192Z,5.80
2022-08-22T19:26:18.616Z,6.63
2022-08-22T19:28:36.893Z,5.70
2022-08-22T19:30:46.726Z,6.13
2022-08-22T19:33:03.317Z,5.17
2022-08-22T19:35:38.670Z,5.33
2022-08-22T19:37:53.305Z,5.43
2022-08-22T19:39:59.804Z,6.93
2022-08-22T19:42:02.867Z,6.80
2022-08-22T19:44:11.078Z,6.03
2022-08-22T19:46:14.973Z,5.37
2022-08-22T19:48:25.511Z,5.60
2022-08-22T19:50:34.119Z,5.53
2022-08-22T19:53:00.785Z,5.70
2022-08-22T19:55:15.060Z,5.53
2022-08-22T19:57:25.208Z,6.53
2022-08-22T19:59:50.908Z,6.03
2022-08-22T20:02:06.473Z,5.90
2022-08-22T20:04:20.558Z,6.57
2022-08-22T20:06:43.956Z,5.67
2022-08-22T20:08:57.818Z,6.43
2022-08-22T20:11:16.475Z,6.50
2022-08-22T20:13:23.733Z,6.40
2022-08-22T20:15:30.258Z,6.80
2022-08-22T20:17:42.571Z,6.20
2022-08-22T20:22:18.693Z,6.53
2022-08-22T20:24:26.734Z,6.40
2022-08-22T20:26:29.951Z,5.50
2022-08-22T20:28:40.283Z,5.83
2022-08-22T20:30:47.779Z,6.13
2022-08-22T20:32:53.806Z,7.27
2022-08-22T20:35:01.317Z,6.17
2022-08-22T20:37:27.079Z,6.10
2022-08-22T20:39:39.347Z,5.23
2022-08-22T20:41:47.268Z,6.00
2022-08-22T20:43:53.950Z,6.63
2022-08-22T20:46:24.571Z,5.97
2022-08-22T20:48:36.589Z,5.47
2022-08-22T20:50:39.402Z,7.50
2022-08-22T20:52:54.360Z,5.97
2022-08-22T20:55:07.648Z,5.80
2022-08-22T20:57:16.060Z,5.50
2022-08-22T20:59:24.051Z,5.87
2022-08-22T21:01:29.453Z,6.20
2022-08-22T21:03:40.737Z,5.53
2022-08-22T21:05:45.220Z,6.10
2022-08-22T21:08:01.674Z,5.87
2022-08-22T21:10:25.129Z,6.53
2022-08-22T21:12:27.850Z,6.13
2022-08-22T21:14:35.148Z,6.13
2022-08-22T21:16:39.219Z,5.60
2022-08-22T21:18:45.896Z,5.67
2022-08-22T21:20:48.833Z,7.97
2022-08-22T21:22:52.473Z,6.20
2022-08-22T21:24:56.833Z,7.20
2022-08-22T21:27:03.251Z,5.50
2022-08-22T21:29:21.321Z,7.27
2022-08-22T21:31:27.793Z,6.63
2022-08-22T21:33:31.998Z,5.40
2022-08-22T21:35:35.282Z,6.90
2022-08-22T21:37:45.356Z,6.53
2022-08-22T21:39:50.559Z,5.57
2022-08-22T21:42:11.481Z,6.07
2022-08-22T21:44:27.828Z,6.37
2022-08-22T21:46:30.570Z,7.30
2022-08-22T21:48:39.827Z,5.73
2022-08-22T21:50:42.548Z,5.73
2022-08-22T21:53:01.670Z,6.30
2022-08-22T21:55:24.453Z,6.30
2022-08-22T21:57:36.840Z,6.60
2022-08-22T21:59:51.980Z,5.87
2022-08-22T22:02:31.267Z,7.00
2022-08-22T22:04:38.200Z,6.80
2022-08-22T22:06:40.910Z,6.50
2022-08-22T22:08:43.832Z,6.80
2022-08-22T22:10:49.867Z,6.77
2022-08-22T22:12:56.124Z,6.40
2022-08-22T22:14:58.932Z,6.77
2022-08-22T22:17:01.705Z,7.30
2022-08-22T22:19:08.823Z,6.73
2022-08-22T22:21:14.735Z,6.80
2022-08-22T22:23:17.946Z,6.73
2022-08-22T22:25:39.070Z,6.30
2022-08-22T22:27:45.665Z,6.60
2022-08-22T22:29:48.385Z,5.60
2022-08-22T22:31:51.383Z,5.80
2022-08-22T22:33:54.072Z,7.40
2022-08-22T22:35:59.887Z,5.93
2022-08-22T22:38:04.005Z,5.83
2022-08-22T22:40:08.430Z,7.10
2022-08-22T22:42:11.188Z,5.70
2022-08-22T22:44:13.904Z,6.43
2022-08-22T22:46:16.771Z,5.60
2022-08-22T22:48:24.203Z,5.63
2022-08-22T22:50:27.639Z,5.40
2022-08-22T22:52:30.469Z,5.97
2022-08-22T22:54:35.209Z,5.50
2022-08-22T22:56:38.280Z,6.03
2022-08-22T22:58:41.187Z,5.37
2022-08-22T23:00:45.117Z,5.87
2022-08-22T23:02:49.620Z,5.53
2022-08-22T23:04:56.087Z,5.63
2022-08-22T23:06:58.868Z,5.57
2022-08-22T23:09:01.596Z,5.83
2022-08-22T23:11:11.199Z,5.30
2022-08-22T23:13:13.974Z,5.70
2022-08-22T23:15:20.025Z,5.60
2022-08-22T23:17:22.931Z,7.57
2022-08-22T23:19:27.346Z,7.47
2022-08-22T23:21:31.250Z,5.33
2022-08-22T23:23:33.921Z,5.53
2022-08-22T23:25:39.754Z,6.07
2022-08-22T23:27:44.536Z,8.97
2022-08-22T23:29:51.559Z,5.67
2022-08-22T23:31:55.901Z,5.50
2022-08-22T23:34:03.245Z,5.80
2022-08-22T23:36:11.888Z,5.90
2022-08-22T23:38:14.572Z,9.20
2022-08-22T23:40:22.867Z,5.17
2022-08-22T23:42:26.621Z,5.77
2022-08-22T23:44:33.458Z,5.37
2022-08-22T23:46:36.959Z,4.97
2022-08-22T23:48:40.008Z,5.13
2022-08-22T23:50:43.106Z,6.00
2022-08-22T23:52:45.884Z,5.17
2022-08-22T23:54:48.552Z,5.13
2022-08-22T23:57:00.766Z,5.80
2022-08-22T23:59:08.028Z,5.50
